Time;durP1;ratioP1;P1;durP2;ratioP2;P2;SDS_P1;SDS_P2;PMS_P1;PMS_P2;Temp;Humidity;BMP_temperature;BMP_pressure;BME280_temperature;BME280_humidity;BME280_pressure;Samples;Min_cycle;Max_cycle;Signal;HPM_P1;HPM_P2
2023/08/23 00:01:13;;;;;;;6.13;3.95;;;;;;;;;;5055651;28;20661;-89
2023/08/23 00:03:39;;;;;;;7.57;3.85;;;;;;;;;;5062959;28;20024;-90
2023/08/23 00:06:05;;;;;;;7.85;4.00;;;;;;;;;;5042704;28;20095;-90
2023/08/23 00:08:31;;;;;;;9.13;3.80;;;;;;;;;;5045212;28;20029;-91
2023/08/23 00:10:58;;;;;;;6.45;3.85;;;;;;;;;;5065967;28;20025;-90
2023/08/23 00:13:24;;;;;;;5.57;3.78;;;;;;;;;;5044324;28;20064;-88
2023/08/23 00:15:50;;;;;;;11.63;3.80;;;;;;;;;;5055098;28;20052;-90
2023/08/23 00:18:16;;;;;;;8.18;4.07;;;;;;;;;;5042576;28;20024;-91
2023/08/23 00:20:42;;;;;;;11.40;3.55;;;;;;;;;;5050851;28;20413;-90
2023/08/23 00:23:08;;;;;;;7.30;3.50;;;;;;;;;;5057574;28;20048;-91
2023/08/23 00:25:34;;;;;;;10.55;4.05;;;;;;;;;;5066275;28;20056;-91
2023/08/23 00:28:00;;;;;;;8.85;3.25;;;;;;;;;;5060375;28;20052;-91
2023/08/23 00:30:26;;;;;;;9.02;4.15;;;;;;;;;;5058944;28;20027;-90
2023/08/23 00:32:52;;;;;;;6.25;4.25;;;;;;;;;;5042660;28;20032;-90
2023/08/23 00:35:18;;;;;;;8.43;4.40;;;;;;;;;;5061070;28;20032;-89
2023/08/23 00:37:44;;;;;;;6.57;3.55;;;;;;;;;;5049106;28;20016;-91
2023/08/23 00:40:10;;;;;;;7.97;3.67;;;;;;;;;;5068738;28;20033;-91
2023/08/23 00:42:37;;;;;;;9.63;4.15;;;;;;;;;;5043918;28;20554;-89
2023/08/23 00:45:04;;;;;;;7.07;3.65;;;;;;;;;;5060049;28;20147;-91
2023/08/23 00:47:30;;;;;;;7.20;3.17;;;;;;;;;;5064553;28;20808;-90
2023/08/23 00:49:57;;;;;;;7.95;3.75;;;;;;;;;;5060801;28;20075;-89
2023/08/23 00:52:27;;;;;;;9.38;3.58;;;;;;;;;;5060565;28;20032;-90
2023/08/23 00:54:53;;;;;;;;;;;;;;;;;;5039523;28;20108;-90
2023/08/23 00:57:19;;;;;;;5.15;3.80;;;;;;;;;;5057487;28;19972;-90
2023/08/23 00:59:45;;;;;;;7.25;3.33;;;;;;;;;;5053414;28;20056;-91
2023/08/23 01:02:11;;;;;;;5.25;3.38;;;;;;;;;;5043495;28;20128;-90
2023/08/23 01:04:37;;;;;;;5.05;3.65;;;;;;;;;;5058601;28;20501;-90
2023/08/23 01:07:14;;;;;;;8.68;3.38;;;;;;;;;;5058896;28;20024;-88
2023/08/23 01:09:56;;;;;;;10.35;4.25;;;;;;;;;;5040287;28;20108;-91
2023/08/23 01:12:25;;;;;;;5.20;3.90;;;;;;;;;;5063493;28;20032;-91
2023/08/23 01:14:55;;;;;;;13.50;3.38;;;;;;;;;;5069644;28;20091;-91
2023/08/23 01:17:21;;;;;;;;;;;;;;;;;;5056285;28;20112;-90
2023/08/23 01:19:48;;;;;;;4.55;3.25;;;;;;;;;;5057092;28;19956;-90
2023/08/23 01:22:23;;;;;;;3.75;3.25;;;;;;;;;;5065058;28;20021;-88
2023/08/23 01:24:49;;;;;;;6.97;3.30;;;;;;;;;;5042571;28;20124;-91
2023/08/23 01:27:16;;;;;;;8.75;3.67;;;;;;;;;;5044299;28;20021;-91
2023/08/23 01:29:43;;;;;;;4.60;3.13;;;;;;;;;;5064159;28;20056;-91
2023/08/23 01:32:30;;;;;;;4.50;3.60;;;;;;;;;;5053383;28;20056;-90
2023/08/23 01:35:02;;;;;;;4.82;3.42;;;;;;;;;;5046649;28;20032;-89
2023/08/23 01:37:29;;;;;;;8.70;4.32;;;;;;;;;;5055594;28;20028;-90
2023/08/23 01:39:56;;;;;;;4.25;3.20;;;;;;;;;;5051325;28;20021;-90
2023/08/23 01:42:22;;;;;;;7.00;3.65;;;;;;;;;;5043018;28;20020;-86
2023/08/23 01:44:50;;;;;;;5.22;3.55;;;;;;;;;;5056709;28;20029;-90
2023/08/23 01:47:17;;;;;;;3.95;3.22;;;;;;;;;;5045715;28;20021;-90
2023/08/23 01:49:43;;;;;;;11.48;3.70;;;;;;;;;;5047583;28;20122;-90
2023/08/23 01:52:09;;;;;;;10.40;3.63;;;;;;;;;;5063044;28;20043;-91
2023/08/23 01:54:35;;;;;;;6.07;3.50;;;;;;;;;;5064184;28;20636;-90
2023/08/23 01:57:01;;;;;;;6.50;3.75;;;;;;;;;;5065498;28;20043;-89
2023/08/23 01:59:27;;;;;;;6.15;4.15;;;;;;;;;;5065458;28;20052;-90
2023/08/23 02:01:53;;;;;;;6.10;3.38;;;;;;;;;;5065275;28;20021;-87
2023/08/23 02:04:20;;;;;;;7.85;4.25;;;;;;;;;;5050962;28;20029;-89
2023/08/23 02:06:46;;;;;;;7.47;3.63;;;;;;;;;;5047106;28;20066;-90
2023/08/23 02:09:12;;;;;;;7.15;3.60;;;;;;;;;;5062365;28;20126;-90
2023/08/23 02:11:38;;;;;;;11.18;3.95;;;;;;;;;;5051327;28;20470;-90
2023/08/23 02:14:04;;;;;;;16.33;4.82;;;;;;;;;;5044252;28;20035;-89
2023/08/23 02:16:30;;;;;;;4.72;3.70;;;;;;;;;;5063049;28;20172;-92
2023/08/23 02:18:56;;;;;;;6.05;3.58;;;;;;;;;;5049191;28;20032;-91
2023/08/23 02:21:22;;;;;;;5.25;3.83;;;;;;;;;;5064105;28;20051;-90
2023/08/23 02:23:48;;;;;;;5.32;3.50;;;;;;;;;;5049059;28;20052;-90
2023/08/23 02:26:14;;;;;;;11.57;3.83;;;;;;;;;;5058112;28;20060;-91
2023/08/23 02:28:40;;;;;;;7.03;4.10;;;;;;;;;;5046556;28;20091;-90
2023/08/23 02:31:06;;;;;;;9.13;3.42;;;;;;;;;;5043250;28;20087;-90
2023/08/23 02:33:32;;;;;;;4.45;3.58;;;;;;;;;;5044251;28;20094;-90
2023/08/23 02:35:58;;;;;;;8.23;3.95;;;;;;;;;;5066673;28;20407;-91
2023/08/23 02:38:24;;;;;;;5.18;3.72;;;;;;;;;;5058969;28;20020;-90
2023/08/23 02:40:50;;;;;;;6.03;3.83;;;;;;;;;;5063233;28;20009;-90
2023/08/23 02:43:16;;;;;;;6.55;3.55;;;;;;;;;;5047981;28;20036;-91
2023/08/23 02:45:42;;;;;;;4.50;3.33;;;;;;;;;;5042836;28;20142;-91
2023/08/23 02:48:11;;;;;;;6.75;3.10;;;;;;;;;;5049333;28;20420;-91
2023/08/23 02:50:38;;;;;;;10.02;3.00;;;;;;;;;;5047950;28;20021;-90
2023/08/23 02:53:04;;;;;;;4.80;3.58;;;;;;;;;;5060377;28;20100;-91
2023/08/23 02:55:30;;;;;;;6.45;3.85;;;;;;;;;;5049438;28;20754;-90
2023/08/23 02:57:56;;;;;;;5.68;3.80;;;;;;;;;;5053882;28;20028;-90
2023/08/23 03:00:22;;;;;;;7.03;3.97;;;;;;;;;;5060813;28;20033;-91
2023/08/23 03:02:48;;;;;;;6.75;3.80;;;;;;;;;;5061869;28;20574;-88
2023/08/23 03:05:14;;;;;;;10.77;3.85;;;;;;;;;;5048357;28;20037;-91
2023/08/23 03:07:40;;;;;;;6.18;3.90;;;;;;;;;;5052313;28;20195;-91
2023/08/23 03:10:06;;;;;;;7.28;4.15;;;;;;;;;;5047084;28;20540;-91
2023/08/23 03:12:32;;;;;;;6.13;3.88;;;;;;;;;;5050537;28;20408;-90
2023/08/23 03:14:58;;;;;;;8.40;4.00;;;;;;;;;;5058542;28;20025;-91
2023/08/23 03:17:24;;;;;;;5.18;3.78;;;;;;;;;;5047925;28;20124;-91
2023/08/23 03:19:50;;;;;;;5.90;4.00;;;;;;;;;;5060513;28;20731;-92
2023/08/23 03:22:16;;;;;;;10.60;4.10;;;;;;;;;;5064780;28;20031;-91
2023/08/23 03:24:42;;;;;;;8.55;3.80;;;;;;;;;;5067644;28;20500;-89
2023/08/23 03:27:08;;;;;;;8.20;3.80;;;;;;;;;;5047623;28;20055;-91
2023/08/23 03:29:34;;;;;;;6.95;3.50;;;;;;;;;;5043338;28;20021;-90
2023/08/23 03:32:00;;;;;;;7.47;3.97;;;;;;;;;;5051468;28;20021;-89
2023/08/23 03:34:29;;;;;;;8.80;4.00;;;;;;;;;;5049303;28;20058;-91
2023/08/23 03:36:55;;;;;;;10.27;3.90;;;;;;;;;;5050093;28;20021;-91
2023/08/23 03:39:20;;;;;;;5.72;3.60;;;;;;;;;;5050249;28;20548;-90
2023/08/23 03:41:47;;;;;;;6.43;3.88;;;;;;;;;;5044044;28;20067;-90
2023/08/23 03:44:13;;;;;;;4.78;3.67;;;;;;;;;;5064457;28;20029;-90
2023/08/23 03:46:39;;;;;;;7.78;3.97;;;;;;;;;;5047928;28;20083;-91
2023/08/23 03:49:05;;;;;;;4.82;3.70;;;;;;;;;;5064134;28;20016;-89
2023/08/23 03:51:31;;;;;;;7.25;4.25;;;;;;;;;;5047144;28;20112;-91
2023/08/23 03:53:57;;;;;;;9.73;4.30;;;;;;;;;;5041141;28;20064;-91
2023/08/23 03:56:23;;;;;;;9.27;4.40;;;;;;;;;;5063631;28;20043;-91
2023/08/23 03:58:49;;;;;;;13.75;4.75;;;;;;;;;;5065542;28;20043;-89
2023/08/23 04:01:15;;;;;;;7.00;4.15;;;;;;;;;;5061377;28;20106;-89
2023/08/23 04:03:41;;;;;;;9.85;4.68;;;;;;;;;;5041839;28;20092;-88
2023/08/23 04:06:07;;;;;;;10.23;4.70;;;;;;;;;;5050095;28;20033;-87
2023/08/23 04:08:33;;;;;;;12.98;4.47;;;;;;;;;;5055010;28;20037;-90
2023/08/23 04:10:59;;;;;;;5.72;4.13;;;;;;;;;;5065861;28;20020;-88
2023/08/23 04:13:25;;;;;;;12.60;3.88;;;;;;;;;;5066836;28;20047;-87
2023/08/23 04:15:51;;;;;;;9.63;3.67;;;;;;;;;;5061260;28;20029;-88
2023/08/23 04:18:17;;;;;;;9.60;3.83;;;;;;;;;;5062994;28;20078;-89
2023/08/23 04:20:43;;;;;;;6.85;3.90;;;;;;;;;;5061801;28;20033;-88
2023/08/23 04:23:09;;;;;;;7.43;3.85;;;;;;;;;;5049146;28;20036;-86
2023/08/23 04:25:35;;;;;;;9.23;3.95;;;;;;;;;;5061961;28;20099;-87
2023/08/23 04:28:01;;;;;;;5.28;3.42;;;;;;;;;;5060343;28;20109;-88
2023/08/23 04:30:26;;;;;;;5.70;3.70;;;;;;;;;;5056342;28;20032;-89
2023/08/23 04:32:52;;;;;;;6.75;3.25;;;;;;;;;;5063856;28;20033;-86
2023/08/23 04:35:18;;;;;;;6.95;4.43;;;;;;;;;;5060185;28;20107;-88
2023/08/23 04:37:44;;;;;;;10.05;4.40;;;;;;;;;;5041030;28;20058;-88
2023/08/23 04:40:10;;;;;;;11.70;4.95;;;;;;;;;;5062491;28;20029;-90
2023/08/23 04:42:38;;;;;;;5.90;4.35;;;;;;;;;;5057424;28;20071;-89
2023/08/23 04:45:04;;;;;;;14.23;4.53;;;;;;;;;;5063469;28;20013;-88
2023/08/23 04:47:32;;;;;;;11.68;4.85;;;;;;;;;;5064526;28;20508;-90
2023/08/23 04:49:57;;;;;;;17.42;4.70;;;;;;;;;;5057729;28;20100;-89
2023/08/23 04:52:23;;;;;;;11.82;4.28;;;;;;;;;;5061125;28;20608;-85
2023/08/23 04:54:49;;;;;;;7.72;4.70;;;;;;;;;;5041496;28;20012;-86
2023/08/23 04:57:15;;;;;;;5.03;3.63;;;;;;;;;;5063328;28;20119;-88
2023/08/23 04:59:41;;;;;;;9.00;3.78;;;;;;;;;;5067346;28;20045;-89
2023/08/23 05:02:07;;;;;;;8.52;4.40;;;;;;;;;;5065992;28;20024;-88
2023/08/23 05:04:33;;;;;;;6.20;3.90;;;;;;;;;;5055037;28;20100;-88
2023/08/23 05:06:59;;;;;;;9.35;4.32;;;;;;;;;;5062700;28;20473;-89
2023/08/23 05:09:28;;;;;;;12.48;4.60;;;;;;;;;;5064528;28;20024;-87
2023/08/23 05:11:54;;;;;;;7.47;3.45;;;;;;;;;;5057484;28;20025;-88
2023/08/23 05:14:20;;;;;;;7.90;4.25;;;;;;;;;;5060754;28;20049;-88
2023/08/23 05:16:46;;;;;;;16.38;4.50;;;;;;;;;;5059644;28;20041;-86
2023/08/23 05:19:12;;;;;;;6.72;4.85;;;;;;;;;;5059765;28;20071;-85
2023/08/23 05:21:39;;;;;;;9.38;3.58;;;;;;;;;;5059337;28;20461;-85
2023/08/23 05:24:05;;;;;;;7.80;4.30;;;;;;;;;;5057995;28;20029;-87
2023/08/23 05:26:31;;;;;;;7.70;3.58;;;;;;;;;;5061660;28;20094;-85
2023/08/23 05:28:57;;;;;;;6.13;4.22;;;;;;;;;;5066525;28;20052;-87
2023/08/23 05:31:23;;;;;;;8.43;4.30;;;;;;;;;;5055187;28;20046;-85
2023/08/23 05:33:49;;;;;;;9.00;3.58;;;;;;;;;;5063158;28;20492;-86
2023/08/23 05:36:15;;;;;;;9.73;3.95;;;;;;;;;;5067847;28;20029;-83
2023/08/23 05:38:41;;;;;;;12.30;4.60;;;;;;;;;;5057694;28;20025;-87
2023/08/23 05:41:07;;;;;;;8.25;4.78;;;;;;;;;;5065430;28;20059;-84
2023/08/23 05:43:33;;;;;;;12.27;4.68;;;;;;;;;;5060593;28;20068;-85
2023/08/23 05:45:59;;;;;;;7.50;4.80;;;;;;;;;;5062303;28;20021;-84
2023/08/23 05:48:28;;;;;;;9.35;4.97;;;;;;;;;;5062344;28;20377;-86
2023/08/23 05:50:54;;;;;;;9.93;4.32;;;;;;;;;;5048005;28;20052;-85
2023/08/23 05:53:20;;;;;;;7.32;4.53;;;;;;;;;;5063941;28;20068;-86
2023/08/23 05:55:50;;;;;;;8.07;4.85;;;;;;;;;;5063935;28;20373;-86
2023/08/23 05:58:17;;;;;;;15.55;4.97;;;;;;;;;;5060781;28;20123;-87
2023/08/23 06:00:44;;;;;;;5.72;3.63;;;;;;;;;;5063184;28;20017;-87
2023/08/23 06:03:10;;;;;;;7.60;3.92;;;;;;;;;;5062437;28;20025;-87
2023/08/23 06:05:36;;;;;;;12.18;4.10;;;;;;;;;;5061921;28;20021;-86
2023/08/23 06:08:05;;;;;;;7.35;4.20;;;;;;;;;;5066109;28;20044;-84
2023/08/23 06:10:31;;;;;;;12.55;4.57;;;;;;;;;;5068131;28;20083;-85
2023/08/23 06:12:57;;;;;;;16.50;4.47;;;;;;;;;;5043304;28;20037;-83
2023/08/23 06:15:23;;;;;;;9.43;3.65;;;;;;;;;;5052528;28;20055;-84
2023/08/23 06:17:49;;;;;;;9.93;4.30;;;;;;;;;;5043995;28;20563;-86
2023/08/23 06:20:16;;;;;;;8.02;4.43;;;;;;;;;;5060432;28;20028;-77
2023/08/23 06:22:42;;;;;;;10.32;4.32;;;;;;;;;;5065206;28;20024;-77
2023/08/23 06:25:09;;;;;;;13.18;4.00;;;;;;;;;;5058876;28;20029;-79
2023/08/23 06:27:35;;;;;;;8.55;4.38;;;;;;;;;;5060635;28;20021;-78
2023/08/23 06:30:02;;;;;;;13.20;4.72;;;;;;;;;;5047788;28;20017;-78
2023/08/23 06:32:28;;;;;;;11.73;4.30;;;;;;;;;;5061532;28;20571;-84
2023/08/23 06:34:54;;;;;;;10.15;4.57;;;;;;;;;;5067377;28;20107;-83
2023/08/23 06:37:21;;;;;;;7.55;4.68;;;;;;;;;;5060423;28;20406;-82
2023/08/23 06:39:48;;;;;;;10.30;4.35;;;;;;;;;;5059583;28;20453;-85
2023/08/23 06:42:14;;;;;;;7.60;3.90;;;;;;;;;;5047290;28;20021;-82
2023/08/23 06:44:40;;;;;;;5.70;3.40;;;;;;;;;;5043456;28;20051;-83
2023/08/23 06:47:06;;;;;;;8.73;4.50;;;;;;;;;;5058054;28;20468;-87
2023/08/23 06:49:32;;;;;;;10.38;4.22;;;;;;;;;;5052468;28;20422;-82
2023/08/23 06:51:58;;;;;;;8.27;4.30;;;;;;;;;;5059760;28;20035;-83
2023/08/23 06:54:24;;;;;;;6.53;3.85;;;;;;;;;;5058112;28;20013;-81
2023/08/23 06:56:50;;;;;;;6.22;3.90;;;;;;;;;;5065908;28;20082;-83
2023/08/23 06:59:16;;;;;;;6.32;4.03;;;;;;;;;;5054957;28;20051;-83
2023/08/23 07:01:42;;;;;;;9.90;4.25;;;;;;;;;;5060890;28;20024;-83
2023/08/23 07:04:08;;;;;;;8.52;4.45;;;;;;;;;;5064614;28;20039;-82
2023/08/23 07:06:34;;;;;;;9.27;4.63;;;;;;;;;;5061817;28;20076;-83
2023/08/23 07:09:00;;;;;;;9.65;4.35;;;;;;;;;;5063206;28;20675;-83
2023/08/23 07:11:26;;;;;;;6.13;4.22;;;;;;;;;;5057519;28;20012;-83
2023/08/23 07:13:52;;;;;;;7.90;4.07;;;;;;;;;;5059019;28;20512;-83
2023/08/23 07:16:18;;;;;;;13.43;4.22;;;;;;;;;;5061014;28;20024;-83
2023/08/23 07:18:44;;;;;;;5.22;3.50;;;;;;;;;;5064302;28;20520;-83
2023/08/23 07:21:10;;;;;;;7.65;3.65;;;;;;;;;;5055919;28;20421;-83
2023/08/23 07:23:36;;;;;;;7.80;3.50;;;;;;;;;;5063827;28;20017;-83
2023/08/23 07:26:03;;;;;;;5.63;4.03;;;;;;;;;;5058082;28;20029;-83
2023/08/23 07:28:29;;;;;;;6.20;3.75;;;;;;;;;;5067333;28;20583;-83
2023/08/23 07:30:57;;;;;;;5.32;3.40;;;;;;;;;;5064953;28;20029;-83
2023/08/23 07:33:27;;;;;;;6.78;4.38;;;;;;;;;;5064998;28;20017;-83
2023/08/23 07:35:59;;;;;;;8.50;3.95;;;;;;;;;;5060512;28;20145;-84
2023/08/23 07:38:26;;;;;;;4.50;3.95;;;;;;;;;;5048659;28;20421;-83
2023/08/23 07:40:56;;;;;;;9.13;3.83;;;;;;;;;;5058970;28;20064;-83
2023/08/23 07:43:22;;;;;;;9.70;4.13;;;;;;;;;;5062162;28;20016;-83
2023/08/23 07:45:55;;;;;;;12.00;4.07;;;;;;;;;;5063239;28;20643;-83
2023/08/23 07:48:22;;;;;;;12.32;4.22;;;;;;;;;;5063150;28;20540;-84
2023/08/23 07:50:49;;;;;;;7.03;4.20;;;;;;;;;;5058821;28;20016;-84
2023/08/23 07:53:15;;;;;;;8.32;3.83;;;;;;;;;;5064020;28;20032;-83
2023/08/23 07:55:41;;;;;;;8.85;4.80;;;;;;;;;;5056188;28;20109;-82
2023/08/23 07:58:07;;;;;;;8.25;4.50;;;;;;;;;;5061400;28;20108;-83
2023/08/23 08:00:33;;;;;;;9.43;4.50;;;;;;;;;;5064402;28;20020;-83
2023/08/23 08:02:59;;;;;;;11.55;3.85;;;;;;;;;;5055631;28;20100;-83
2023/08/23 08:05:25;;;;;;;8.88;4.30;;;;;;;;;;5064144;28;20381;-83
2023/08/23 08:07:51;;;;;;;8.88;3.38;;;;;;;;;;5060383;28;20025;-82
2023/08/23 08:10:17;;;;;;;5.15;3.75;;;;;;;;;;5053606;28;20084;-83
2023/08/23 08:12:43;;;;;;;7.75;3.90;;;;;;;;;;5064290;28;20131;-83
2023/08/23 08:15:09;;;;;;;4.82;3.65;;;;;;;;;;5061476;28;20082;-82
2023/08/23 08:17:35;;;;;;;5.85;3.40;;;;;;;;;;5054698;28;20412;-87
2023/08/23 08:20:05;;;;;;;9.70;4.15;;;;;;;;;;5059115;28;20088;-83
2023/08/23 08:22:31;;;;;;;6.75;3.55;;;;;;;;;;5052095;28;20152;-83
2023/08/23 08:24:57;;;;;;;5.75;3.50;;;;;;;;;;5063197;28;20103;-83
2023/08/23 08:27:23;;;;;;;8.05;4.00;;;;;;;;;;5063132;28;20114;-82
2023/08/23 08:29:50;;;;;;;8.90;4.18;;;;;;;;;;5061306;28;20489;-83
2023/08/23 08:32:16;;;;;;;8.63;4.18;;;;;;;;;;5058977;28;20063;-83
2023/08/23 08:34:42;;;;;;;8.50;4.55;;;;;;;;;;5060872;28;20044;-83
2023/08/23 08:37:08;;;;;;;11.13;4.10;;;;;;;;;;5052256;28;20028;-83
2023/08/23 08:39:34;;;;;;;8.77;3.92;;;;;;;;;;5062792;28;20035;-83
2023/08/23 08:42:00;;;;;;;10.80;4.40;;;;;;;;;;5057994;28;20497;-84
2023/08/23 08:44:26;;;;;;;10.82;4.30;;;;;;;;;;5061708;28;20025;-83
2023/08/23 08:46:52;;;;;;;8.10;3.50;;;;;;;;;;5062689;28;20036;-82
2023/08/23 08:49:19;;;;;;;13.43;4.60;;;;;;;;;;5056771;28;20053;-83
2023/08/23 08:51:48;;;;;;;13.55;4.28;;;;;;;;;;5055854;28;20029;-82
2023/08/23 08:54:18;;;;;;;5.97;3.50;;;;;;;;;;5058033;28;20021;-83
2023/08/23 08:56:44;;;;;;;;;;;;;;;;;;5059607;28;20092;-82
2023/08/23 08:59:10;;;;;;;4.88;3.10;;;;;;;;;;5060110;28;20333;-82
2023/08/23 09:01:38;;;;;;;13.90;4.00;;;;;;;;;;5068380;28;20035;-85
2023/08/23 09:04:04;;;;;;;14.18;3.78;;;;;;;;;;5065367;28;20095;-82
2023/08/23 09:06:30;;;;;;;6.65;4.00;;;;;;;;;;5064352;28;20025;-82
2023/08/23 09:08:58;;;;;;;11.20;3.97;;;;;;;;;;5064904;28;20101;-82
2023/08/23 09:11:24;;;;;;;7.82;3.53;;;;;;;;;;5059951;28;20036;-82
2023/08/23 09:13:50;;;;;;;6.60;4.07;;;;;;;;;;5050690;28;20033;-84
2023/08/23 09:16:16;;;;;;;5.70;3.63;;;;;;;;;;5048333;28;20281;-85
2023/08/23 09:18:46;;;;;;;7.15;3.95;;;;;;;;;;5068173;28;20030;-84
2023/08/23 09:21:12;;;;;;;7.47;4.13;;;;;;;;;;5070078;28;20024;-82
2023/08/23 09:23:38;;;;;;;8.15;4.18;;;;;;;;;;5068528;28;20111;-81
2023/08/23 09:26:06;;;;;;;6.72;3.92;;;;;;;;;;5065831;28;20103;-82
2023/08/23 09:28:32;;;;;;;6.72;3.97;;;;;;;;;;5066239;28;20027;-82
2023/08/23 09:30:58;;;;;;;6.72;3.42;;;;;;;;;;5058108;28;20028;-82
2023/08/23 09:33:24;;;;;;;5.10;3.38;;;;;;;;;;5070420;28;20032;-82
2023/08/23 09:35:51;;;;;;;7.25;3.70;;;;;;;;;;5069610;28;20750;-82
2023/08/23 09:38:20;;;;;;;10.45;4.10;;;;;;;;;;5062483;28;20381;-82
2023/08/23 09:40:49;;;;;;;6.05;4.00;;;;;;;;;;5068909;28;20103;-81
2023/08/23 09:43:16;;;;;;;7.00;4.17;;;;;;;;;;5070609;28;20036;-91
2023/08/23 09:45:42;;;;;;;5.25;3.55;;;;;;;;;;5067064;28;20029;-90
2023/08/23 09:48:10;;;;;;;6.80;4.15;;;;;;;;;;5051226;28;20048;-91
2023/08/23 09:50:36;;;;;;;5.53;3.22;;;;;;;;;;5053255;28;20472;-92
2023/08/23 09:53:05;;;;;;;4.40;3.45;;;;;;;;;;5052915;28;20488;-91
2023/08/23 09:55:35;;;;;;;14.68;4.28;;;;;;;;;;5072227;28;20025;-92
2023/08/23 09:58:01;;;;;;;11.17;3.90;;;;;;;;;;5055694;28;20115;-92
2023/08/23 10:00:28;;;;;;;7.85;3.55;;;;;;;;;;5055221;28;20252;-92
2023/08/23 10:02:57;;;;;;;8.77;3.70;;;;;;;;;;5071926;28;20071;-93
2023/08/23 10:05:25;;;;;;;10.65;3.85;;;;;;;;;;5052062;28;20404;-93
2023/08/23 10:07:53;;;;;;;11.75;3.75;;;;;;;;;;5071907;28;20017;-92
2023/08/23 10:10:19;;;;;;;8.38;4.10;;;;;;;;;;5052467;28;20493;-92
2023/08/23 10:12:47;;;;;;;13.75;4.32;;;;;;;;;;5050577;28;20035;-92
2023/08/23 10:15:15;;;;;;;7.25;4.47;;;;;;;;;;5053141;28;20031;-92
2023/08/23 10:17:43;;;;;;;6.03;3.72;;;;;;;;;;5057735;28;20016;-91
2023/08/23 10:20:10;;;;;;;12.75;3.78;;;;;;;;;;5051372;28;20416;-92
2023/08/23 10:22:37;;;;;;;7.15;4.10;;;;;;;;;;5070378;28;20020;-92
2023/08/23 10:25:23;;;;;;;6.45;4.18;;;;;;;;;;5068177;28;20492;-93
2023/08/23 10:27:52;;;;;;;9.15;4.35;;;;;;;;;;5065610;28;20032;-92
2023/08/23 10:30:22;;;;;;;10.13;4.25;;;;;;;;;;5057343;28;20358;-96
2023/08/23 10:32:48;;;;;;;12.70;4.43;;;;;;;;;;5069071;28;20473;-93
2023/08/23 10:35:27;;;;;;;7.45;4.00;;;;;;;;;;5050734;28;20384;-91
2023/08/23 10:37:53;;;;;;;6.82;4.22;;;;;;;;;;5067507;28;20027;-91
2023/08/23 10:40:20;;;;;;;10.52;3.63;;;;;;;;;;5051618;28;20116;-93
2023/08/23 10:42:47;;;;;;;7.47;3.85;;;;;;;;;;5057150;28;20114;-79
2023/08/23 10:45:16;;;;;;;6.75;4.18;;;;;;;;;;5065394;28;20044;-79
2023/08/23 10:47:42;;;;;;;7.97;4.43;;;;;;;;;;5044422;28;20048;-79
2023/08/23 10:50:09;;;;;;;10.88;3.97;;;;;;;;;;5064637;28;20029;-79
2023/08/23 10:52:35;;;;;;;8.68;4.10;;;;;;;;;;5058811;28;20025;-79
2023/08/23 10:55:00;;;;;;;9.52;4.43;;;;;;;;;;5059428;28;20025;-79
2023/08/23 10:57:26;;;;;;;6.35;4.03;;;;;;;;;;5065083;28;20039;-79
2023/08/23 10:59:52;;;;;;;7.95;3.67;;;;;;;;;;5068549;28;20024;-79
2023/08/23 11:02:18;;;;;;;9.20;3.90;;;;;;;;;;5057404;28;20100;-79
2023/08/23 11:04:44;;;;;;;6.53;3.95;;;;;;;;;;5063136;28;20029;-80
2023/08/23 11:07:11;;;;;;;6.35;4.72;;;;;;;;;;5064134;28;20458;-79
2023/08/23 11:09:37;;;;;;;6.82;3.75;;;;;;;;;;5064807;28;20076;-80
2023/08/23 11:12:06;;;;;;;8.40;4.10;;;;;;;;;;5064968;28;20112;-79
2023/08/23 11:14:32;;;;;;;5.82;4.13;;;;;;;;;;5063491;28;20381;-81
2023/08/23 11:16:58;;;;;;;5.60;3.90;;;;;;;;;;5066009;28;20021;-81
2023/08/23 11:19:24;;;;;;;9.90;4.20;;;;;;;;;;5063642;28;20021;-80
2023/08/23 11:21:50;;;;;;;11.38;4.07;;;;;;;;;;5066134;28;20021;-79
2023/08/23 11:24:16;;;;;;;7.65;3.90;;;;;;;;;;5062776;28;20519;-80
2023/08/23 11:26:42;;;;;;;12.93;3.90;;;;;;;;;;5065855;28;20033;-80
2023/08/23 11:29:08;;;;;;;5.82;3.88;;;;;;;;;;5063098;28;20072;-79
2023/08/23 11:31:34;;;;;;;7.57;3.80;;;;;;;;;;5065846;28;20025;-80
2023/08/23 11:34:05;;;;;;;6.28;3.95;;;;;;;;;;5062843;28;20032;-80
2023/08/23 11:36:35;;;;;;;11.57;4.57;;;;;;;;;;5066356;28;20107;-80
2023/08/23 11:39:04;;;;;;;5.38;3.58;;;;;;;;;;5066639;28;20051;-79
2023/08/23 11:41:32;;;;;;;5.72;3.70;;;;;;;;;;5064791;28;20017;-80
2023/08/23 11:44:02;;;;;;;8.93;3.75;;;;;;;;;;5066372;28;20025;-79
2023/08/23 11:46:28;;;;;;;9.55;5.07;;;;;;;;;;5064031;28;20032;-79
2023/08/23 11:48:54;;;;;;;8.02;4.07;;;;;;;;;;5064264;28;20044;-79
2023/08/23 11:51:20;;;;;;;9.38;3.80;;;;;;;;;;5064100;28;20075;-80
2023/08/23 11:53:54;;;;;;;14.20;3.65;;;;;;;;;;5063811;28;20048;-80
2023/08/23 11:56:20;;;;;;;14.68;4.43;;;;;;;;;;5068382;28;20108;-80
2023/08/23 11:58:47;;;;;;;8.63;4.07;;;;;;;;;;5064824;28;20056;-80
2023/08/23 12:01:13;;;;;;;5.22;3.80;;;;;;;;;;5063592;28;20027;-80
2023/08/23 12:03:39;;;;;;;10.90;4.15;;;;;;;;;;5062236;28;20501;-81
2023/08/23 12:06:05;;;;;;;8.10;4.35;;;;;;;;;;5061299;28;20036;-80
2023/08/23 12:08:34;;;;;;;6.57;3.70;;;;;;;;;;5062344;28;20033;-80
2023/08/23 12:11:00;;;;;;;5.25;3.58;;;;;;;;;;5062851;28;20024;-80
2023/08/23 12:13:26;;;;;;;7.22;3.80;;;;;;;;;;5061550;28;20373;-81
2023/08/23 12:15:52;;;;;;;6.57;3.92;;;;;;;;;;5055387;28;20029;-81
2023/08/23 12:18:18;;;;;;;9.95;3.90;;;;;;;;;;5056355;28;20048;-82
2023/08/23 12:20:44;;;;;;;5.93;3.67;;;;;;;;;;5062654;28;20049;-82
2023/08/23 12:23:10;;;;;;;5.53;3.47;;;;;;;;;;5058091;28;20052;-81
2023/08/23 12:25:36;;;;;;;7.15;3.95;;;;;;;;;;5062643;28;20009;-82
2023/08/23 12:28:02;;;;;;;8.02;4.28;;;;;;;;;;5066149;28;20091;-81
2023/08/23 12:30:28;;;;;;;7.07;3.83;;;;;;;;;;5054530;28;20027;-80
2023/08/23 12:32:54;;;;;;;8.73;3.92;;;;;;;;;;5060473;28;20416;-79
2023/08/23 12:35:20;;;;;;;11.57;3.97;;;;;;;;;;5059478;28;20084;-80
2023/08/23 12:37:46;;;;;;;8.45;3.97;;;;;;;;;;5053229;28;20241;-79
2023/08/23 12:40:12;;;;;;;13.38;3.85;;;;;;;;;;5059431;28;20533;-81
2023/08/23 12:42:39;;;;;;;10.30;4.70;;;;;;;;;;5063259;28;20475;-79
2023/08/23 12:45:05;;;;;;;12.23;4.43;;;;;;;;;;5056876;28;20020;-76
2023/08/23 12:47:31;;;;;;;8.05;4.18;;;;;;;;;;5063049;28;20021;-78
2023/08/23 12:49:57;;;;;;;8.38;4.45;;;;;;;;;;5053263;28;20032;-81
2023/08/23 12:52:23;;;;;;;12.60;4.63;;;;;;;;;;5054955;28;20025;-80
2023/08/23 12:54:49;;;;;;;10.90;3.97;;;;;;;;;;5060464;28;20029;-78
2023/08/23 12:57:15;;;;;;;11.07;3.88;;;;;;;;;;5059679;28;20060;-81
2023/08/23 12:59:41;;;;;;;7.20;3.88;;;;;;;;;;5063294;28;20025;-80
2023/08/23 13:02:07;;;;;;;6.60;3.75;;;;;;;;;;5065148;28;20031;-78
2023/08/23 13:04:33;;;;;;;9.50;5.05;;;;;;;;;;5054443;28;20027;-80
2023/08/23 13:06:59;;;;;;;13.75;4.93;;;;;;;;;;5058758;28;20021;-78
2023/08/23 13:09:25;;;;;;;9.98;4.68;;;;;;;;;;5060350;28;20021;-78
2023/08/23 13:11:51;;;;;;;5.35;4.22;;;;;;;;;;5054739;28;20035;-78
2023/08/23 13:14:17;;;;;;;11.93;4.50;;;;;;;;;;5042905;28;20100;-78
2023/08/23 13:16:43;;;;;;;8.13;4.53;;;;;;;;;;5057237;28;20020;-78
2023/08/23 13:19:09;;;;;;;9.90;4.63;;;;;;;;;;5058398;28;20461;-78
2023/08/23 13:21:35;;;;;;;10.57;4.50;;;;;;;;;;5061398;28;20052;-79
2023/08/23 13:24:01;;;;;;;16.35;5.10;;;;;;;;;;5057898;28;20029;-78
2023/08/23 13:26:27;;;;;;;7.95;4.47;;;;;;;;;;5055991;28;20017;-78
2023/08/23 13:28:53;;;;;;;7.03;4.50;;;;;;;;;;5058903;28;20029;-78
2023/08/23 13:31:19;;;;;;;22.20;5.32;;;;;;;;;;5052733;28;20021;-79
2023/08/23 13:33:46;;;;;;;6.15;4.32;;;;;;;;;;5059698;28;20115;-80
2023/08/23 13:36:15;;;;;;;8.38;4.10;;;;;;;;;;5065168;28;20469;-76
2023/08/23 13:38:42;;;;;;;8.60;4.90;;;;;;;;;;5059063;28;20075;-79
2023/08/23 13:41:08;;;;;;;7.15;4.35;;;;;;;;;;5058810;28;20040;-78
2023/08/23 13:43:34;;;;;;;10.23;4.38;;;;;;;;;;5060274;28;20457;-80
2023/08/23 13:46:00;;;;;;;14.63;4.68;;;;;;;;;;5056340;28;20029;-80
2023/08/23 13:48:26;;;;;;;8.10;4.22;;;;;;;;;;5065302;28;20026;-79
2023/08/23 13:50:51;;;;;;;8.07;4.25;;;;;;;;;;5056965;28;20025;-82
2023/08/23 13:53:17;;;;;;;8.93;4.47;;;;;;;;;;5057946;28;20172;-80
2023/08/23 13:55:46;;;;;;;8.25;4.25;;;;;;;;;;5064490;28;20087;-79
2023/08/23 13:58:12;;;;;;;8.35;3.90;;;;;;;;;;5058186;28;20040;-81
2023/08/23 14:00:38;;;;;;;6.78;4.30;;;;;;;;;;5057552;28;20036;-80
2023/08/23 14:03:04;;;;;;;11.02;4.78;;;;;;;;;;5064841;28;20035;-79
2023/08/23 14:05:30;;;;;;;7.85;4.25;;;;;;;;;;5056378;28;20024;-78
2023/08/23 14:07:56;;;;;;;11.73;3.95;;;;;;;;;;5062976;28;20025;-80
2023/08/23 14:10:22;;;;;;;8.15;4.13;;;;;;;;;;5066607;28;20025;-80
2023/08/23 14:12:48;;;;;;;10.77;4.38;;;;;;;;;;5058795;28;20437;-79
2023/08/23 14:15:14;;;;;;;5.93;4.05;;;;;;;;;;5060309;28;20028;-78
2023/08/23 14:17:43;;;;;;;9.40;4.15;;;;;;;;;;5066661;28;20481;-79
2023/08/23 14:20:10;;;;;;;9.15;3.78;;;;;;;;;;5063271;28;20021;-77
2023/08/23 14:22:36;;;;;;;7.68;4.15;;;;;;;;;;5066273;28;20013;-80
2023/08/23 14:25:03;;;;;;;13.38;5.68;;;;;;;;;;5066248;28;20543;-80
2023/08/23 14:27:29;;;;;;;9.07;3.80;;;;;;;;;;5065444;28;20028;-82
2023/08/23 14:29:56;;;;;;;16.50;4.63;;;;;;;;;;5064640;28;20136;-83
2023/08/23 14:32:26;;;;;;;12.00;3.45;;;;;;;;;;5060285;28;20060;-82
2023/08/23 14:34:53;;;;;;;7.55;3.40;;;;;;;;;;5057587;28;20048;-80
2023/08/23 14:37:19;;;;;;;11.65;3.95;;;;;;;;;;5066250;28;20362;-81